Terminal Aerodrome Forecast
Issued by NWS Jackson, MS

Home | Current Version | Previous Version | Text Only | Print | Product List | Glossary On
Versions: 1 2 3 4 5 6 7 8 9 10 11 12 13
054
FTUS44 KJAN 242335
TAFJAN
TAF
KJAN 242335Z 2500/2524 09006KT P6SM VCTS SCT040CB SCT060
     FM250100 09005KT P6SM FEW060 SCT250=

USA.gov is the U.S. government's official web portal to all federal, state and local government web resources and services.